Salt Flat, Texas
Current Conditions -  °F | °C
As of 1:51 AM on Monday 20 Oct 2014 (Local Time) from KGDP Reporting Station
Broken Clouds Broken Clouds  
Wind Chill: 56°   Ceiling: 500
Heat Index: 56°   Visibility: 7mi
Dew Point: 54°   Wind: 3mph
Humidity: 93%   Direction: 230°SW
Pressure: 30.16"   Gusts: NA
Location:  31.33°N, 104.47°W
Report Text: KGDP 200751Z AUTO 23003KT 7SM BKN005 BKN011 13/12 A3016 RMK AO2 CIG 003V007 SLP156 T01330122
Loading
Personal Weather Stations






























Interactive Weather Map
Tropical Storm Tracking
New forecast layout! Learn more

10-Day Weather Forecast

Advertisements
Track Severe Weather on mobile